sensor_id;sensor_type;location;lat;lon;timestamp;temperature;humidity
13336;DHT22;6737;51.480;11.962;2023-09-19T00:01:15;18.00;99.90
13336;DHT22;6737;51.480;11.962;2023-09-19T00:03:45;18.00;99.90
13336;DHT22;6737;51.480;11.962;2023-09-19T00:06:11;18.00;99.90
13336;DHT22;6737;51.480;11.962;2023-09-19T00:08:38;18.00;99.90
13336;DHT22;6737;51.480;11.962;2023-09-19T00:11:04;18.00;99.90
13336;DHT22;6737;51.480;11.962;2023-09-19T00:13:32;18.00;99.90
13336;DHT22;6737;51.480;11.962;2023-09-19T00:15:59;18.00;99.90
13336;DHT22;6737;51.480;11.962;2023-09-19T00:18:26;17.90;99.90
13336;DHT22;6737;51.480;11.962;2023-09-19T00:21:01;17.90;99.90
13336;DHT22;6737;51.480;11.962;2023-09-19T00:23:27;17.90;99.90
13336;DHT22;6737;51.480;11.962;2023-09-19T00:25:53;17.90;99.90
13336;DHT22;6737;51.480;11.962;2023-09-19T00:28:23;17.80;99.90
13336;DHT22;6737;51.480;11.962;2023-09-19T00:30:49;17.90;99.90
13336;DHT22;6737;51.480;11.962;2023-09-19T00:33:20;17.90;99.90
13336;DHT22;6737;51.480;11.962;2023-09-19T00:35:52;17.80;99.90
13336;DHT22;6737;51.480;11.962;2023-09-19T00:38:19;17.80;99.90
13336;DHT22;6737;51.480;11.962;2023-09-19T00:40:50;17.80;99.90
13336;DHT22;6737;51.480;11.962;2023-09-19T00:43:20;17.80;99.90
13336;DHT22;6737;51.480;11.962;2023-09-19T00:45:48;17.80;99.90
13336;DHT22;6737;51.480;11.962;2023-09-19T00:48:16;17.80;99.90
13336;DHT22;6737;51.480;11.962;2023-09-19T00:50:43;17.80;99.90
13336;DHT22;6737;51.480;11.962;2023-09-19T00:53:10;17.70;99.90
13336;DHT22;6737;51.480;11.962;2023-09-19T00:55:39;17.70;99.90
13336;DHT22;6737;51.480;11.962;2023-09-19T00:58:07;17.70;99.90
13336;DHT22;6737;51.480;11.962;2023-09-19T01:00:36;17.70;99.90
13336;DHT22;6737;51.480;11.962;2023-09-19T01:03:03;17.60;99.90
13336;DHT22;6737;51.480;11.962;2023-09-19T01:05:29;17.60;99.90
13336;DHT22;6737;51.480;11.962;2023-09-19T01:07:56;17.60;99.90
13336;DHT22;6737;51.480;11.962;2023-09-19T01:10:22;17.50;99.90
13336;DHT22;6737;51.480;11.962;2023-09-19T01:13:19;17.50;99.90
13336;DHT22;6737;51.480;11.962;2023-09-19T01:16:11;17.50;99.90
13336;DHT22;6737;51.480;11.962;2023-09-19T01:19:01;17.50;99.90
13336;DHT22;6737;51.480;11.962;2023-09-19T01:21:49;17.50;99.90
13336;DHT22;6737;51.480;11.962;2023-09-19T01:30:21;17.30;99.90
13336;DHT22;6737;51.480;11.962;2023-09-19T01:32:53;17.30;99.90
13336;DHT22;6737;51.480;11.962;2023-09-19T01:35:19;17.20;99.90
13336;DHT22;6737;51.480;11.962;2023-09-19T01:37:45;17.20;99.90
13336;DHT22;6737;51.480;11.962;2023-09-19T01:40:14;17.20;99.90
13336;DHT22;6737;51.480;11.962;2023-09-19T01:49:24;17.10;99.90
13336;DHT22;6737;51.480;11.962;2023-09-19T01:51:32;17.00;99.90
13336;DHT22;6737;51.480;11.962;2023-09-19T01:59:25;17.10;99.90
13336;DHT22;6737;51.480;11.962;2023-09-19T02:01:54;17.10;99.90
13336;DHT22;6737;51.480;11.962;2023-09-19T02:04:21;17.10;99.90
13336;DHT22;6737;51.480;11.962;2023-09-19T02:06:47;17.10;99.90
13336;DHT22;6737;51.480;11.962;2023-09-19T02:09:14;17.20;99.90
13336;DHT22;6737;51.480;11.962;2023-09-19T02:11:40;17.20;99.90
13336;DHT22;6737;51.480;11.962;2023-09-19T02:14:08;17.20;99.90
13336;DHT22;6737;51.480;11.962;2023-09-19T02:16:34;17.10;99.90
13336;DHT22;6737;51.480;11.962;2023-09-19T02:19:00;17.20;99.90
13336;DHT22;6737;51.480;11.962;2023-09-19T02:21:26;17.10;99.90
13336;DHT22;6737;51.480;11.962;2023-09-19T02:23:55;17.20;99.90
13336;DHT22;6737;51.480;11.962;2023-09-19T02:26:21;17.20;99.90
13336;DHT22;6737;51.480;11.962;2023-09-19T02:28:50;17.10;99.90
13336;DHT22;6737;51.480;11.962;2023-09-19T02:31:16;17.20;99.90
13336;DHT22;6737;51.480;11.962;2023-09-19T02:33:42;17.10;99.90
13336;DHT22;6737;51.480;11.962;2023-09-19T02:36:09;17.10;99.90
13336;DHT22;6737;51.480;11.962;2023-09-19T02:38:36;17.10;99.90
13336;DHT22;6737;51.480;11.962;2023-09-19T02:41:03;17.10;99.90
13336;DHT22;6737;51.480;11.962;2023-09-19T02:43:29;17.20;99.90
13336;DHT22;6737;51.480;11.962;2023-09-19T02:45:54;17.10;99.90
13336;DHT22;6737;51.480;11.962;2023-09-19T02:48:20;17.10;99.90
13336;DHT22;6737;51.480;11.962;2023-09-19T02:50:49;17.10;99.90
13336;DHT22;6737;51.480;11.962;2023-09-19T02:53:15;17.10;99.90
13336;DHT22;6737;51.480;11.962;2023-09-19T02:55:41;17.00;99.90
13336;DHT22;6737;51.480;11.962;2023-09-19T02:58:08;17.00;99.90
13336;DHT22;6737;51.480;11.962;2023-09-19T03:00:37;17.00;99.90
13336;DHT22;6737;51.480;11.962;2023-09-19T03:03:03;16.90;99.90
13336;DHT22;6737;51.480;11.962;2023-09-19T03:05:29;16.90;99.90
13336;DHT22;6737;51.480;11.962;2023-09-19T03:07:58;16.90;99.90
13336;DHT22;6737;51.480;11.962;2023-09-19T03:10:27;16.90;99.90
13336;DHT22;6737;51.480;11.962;2023-09-19T03:12:53;16.90;99.90
13336;DHT22;6737;51.480;11.962;2023-09-19T03:15:20;16.90;99.90
13336;DHT22;6737;51.480;11.962;2023-09-19T03:17:48;16.90;99.90
13336;DHT22;6737;51.480;11.962;2023-09-19T03:20:15;17.00;99.90
13336;DHT22;6737;51.480;11.962;2023-09-19T03:22:44;17.00;99.90
13336;DHT22;6737;51.480;11.962;2023-09-19T03:25:11;17.00;99.90
13336;DHT22;6737;51.480;11.962;2023-09-19T03:27:38;17.00;99.90
13336;DHT22;6737;51.480;11.962;2023-09-19T03:30:05;17.10;99.90
13336;DHT22;6737;51.480;11.962;2023-09-19T03:32:37;17.00;99.90
13336;DHT22;6737;51.480;11.962;2023-09-19T03:35:04;17.10;99.90
13336;DHT22;6737;51.480;11.962;2023-09-19T03:37:31;17.00;99.90
13336;DHT22;6737;51.480;11.962;2023-09-19T03:39:59;17.00;99.90
13336;DHT22;6737;51.480;11.962;2023-09-19T03:42:24;17.00;99.90
13336;DHT22;6737;51.480;11.962;2023-09-19T03:44:52;16.90;99.90
13336;DHT22;6737;51.480;11.962;2023-09-19T03:47:18;16.90;99.90
13336;DHT22;6737;51.480;11.962;2023-09-19T03:49:47;16.90;99.90
13336;DHT22;6737;51.480;11.962;2023-09-19T03:52:12;16.90;99.90
13336;DHT22;6737;51.480;11.962;2023-09-19T03:54:38;16.80;99.90
13336;DHT22;6737;51.480;11.962;2023-09-19T03:57:07;16.80;99.90
13336;DHT22;6737;51.480;11.962;2023-09-19T03:59:32;16.80;99.90
13336;DHT22;6737;51.480;11.962;2023-09-19T04:01:58;16.80;99.90
13336;DHT22;6737;51.480;11.962;2023-09-19T04:04:25;16.70;99.90
13336;DHT22;6737;51.480;11.962;2023-09-19T04:06:51;16.70;99.90
13336;DHT22;6737;51.480;11.962;2023-09-19T04:09:17;16.70;99.90
13336;DHT22;6737;51.480;11.962;2023-09-19T04:11:42;16.70;99.90
13336;DHT22;6737;51.480;11.962;2023-09-19T04:14:08;16.60;99.90
13336;DHT22;6737;51.480;11.962;2023-09-19T04:16:34;16.60;99.90
13336;DHT22;6737;51.480;11.962;2023-09-19T04:19:00;16.60;99.90
13336;DHT22;6737;51.480;11.962;2023-09-19T04:21:25;16.60;99.90
13336;DHT22;6737;51.480;11.962;2023-09-19T04:23:52;16.60;99.90
13336;DHT22;6737;51.480;11.962;2023-09-19T04:26:18;16.50;99.90
13336;DHT22;6737;51.480;11.962;2023-09-19T04:28:43;16.40;99.90
13336;DHT22;6737;51.480;11.962;2023-09-19T04:31:10;16.40;99.90
13336;DHT22;6737;51.480;11.962;2023-09-19T04:33:37;16.40;99.90
13336;DHT22;6737;51.480;11.962;2023-09-19T04:36:03;16.40;99.90
13336;DHT22;6737;51.480;11.962;2023-09-19T04:38:31;16.30;99.90
13336;DHT22;6737;51.480;11.962;2023-09-19T04:40:57;16.40;99.90
13336;DHT22;6737;51.480;11.962;2023-09-19T04:43:25;16.30;99.90
13336;DHT22;6737;51.480;11.962;2023-09-19T04:45:51;16.20;99.90
13336;DHT22;6737;51.480;11.962;2023-09-19T04:48:22;16.20;99.90
13336;DHT22;6737;51.480;11.962;2023-09-19T04:50:50;16.20;99.90
13336;DHT22;6737;51.480;11.962;2023-09-19T04:53:18;16.20;99.90
13336;DHT22;6737;51.480;11.962;2023-09-19T04:55:50;16.10;99.90
13336;DHT22;6737;51.480;11.962;2023-09-19T04:58:16;16.20;99.90
13336;DHT22;6737;51.480;11.962;2023-09-19T05:00:43;16.20;99.90
13336;DHT22;6737;51.480;11.962;2023-09-19T05:03:09;16.20;99.90
13336;DHT22;6737;51.480;11.962;2023-09-19T05:05:35;16.20;99.90
13336;DHT22;6737;51.480;11.962;2023-09-19T05:08:01;16.20;99.90
13336;DHT22;6737;51.480;11.962;2023-09-19T05:10:32;16.20;99.90
13336;DHT22;6737;51.480;11.962;2023-09-19T05:12:58;16.10;99.90
13336;DHT22;6737;51.480;11.962;2023-09-19T05:15:24;16.10;99.90
13336;DHT22;6737;51.480;11.962;2023-09-19T05:17:50;16.10;99.90
13336;DHT22;6737;51.480;11.962;2023-09-19T05:20:17;16.10;99.90
13336;DHT22;6737;51.480;11.962;2023-09-19T05:25:30;16.10;99.90
13336;DHT22;6737;51.480;11.962;2023-09-19T05:27:57;16.20;99.90
13336;DHT22;6737;51.480;11.962;2023-09-19T05:30:27;16.10;99.90
13336;DHT22;6737;51.480;11.962;2023-09-19T05:32:53;16.10;99.90
13336;DHT22;6737;51.480;11.962;2023-09-19T05:35:20;16.20;99.90
13336;DHT22;6737;51.480;11.962;2023-09-19T05:37:48;16.20;99.90
13336;DHT22;6737;51.480;11.962;2023-09-19T05:40:19;16.10;99.90
13336;DHT22;6737;51.480;11.962;2023-09-19T05:42:46;16.10;99.90
13336;DHT22;6737;51.480;11.962;2023-09-19T05:45:12;16.10;99.90
13336;DHT22;6737;51.480;11.962;2023-09-19T05:47:39;16.10;99.90
13336;DHT22;6737;51.480;11.962;2023-09-19T05:50:10;16.20;99.90
13336;DHT22;6737;51.480;11.962;2023-09-19T05:52:36;16.20;99.90
13336;DHT22;6737;51.480;11.962;2023-09-19T05:55:06;16.30;99.90
13336;DHT22;6737;51.480;11.962;2023-09-19T05:57:37;16.30;99.90
13336;DHT22;6737;51.480;11.962;2023-09-19T06:00:08;16.30;99.90
13336;DHT22;6737;51.480;11.962;2023-09-19T06:02:37;16.40;99.90
13336;DHT22;6737;51.480;11.962;2023-09-19T06:05:07;16.40;99.90
13336;DHT22;6737;51.480;11.962;2023-09-19T06:07:36;16.50;99.90
13336;DHT22;6737;51.480;11.962;2023-09-19T06:10:06;16.50;99.90
13336;DHT22;6737;51.480;11.962;2023-09-19T06:12:42;16.50;99.90
13336;DHT22;6737;51.480;11.962;2023-09-19T06:15:12;16.60;99.90
13336;DHT22;6737;51.480;11.962;2023-09-19T06:17:50;16.70;99.90
13336;DHT22;6737;51.480;11.962;2023-09-19T06:20:16;16.80;99.90
13336;DHT22;6737;51.480;11.962;2023-09-19T06:22:44;16.80;99.90
13336;DHT22;6737;51.480;11.962;2023-09-19T06:25:11;16.90;99.90
13336;DHT22;6737;51.480;11.962;2023-09-19T06:27:40;17.00;99.90
13336;DHT22;6737;51.480;11.962;2023-09-19T06:30:10;17.10;99.90
13336;DHT22;6737;51.480;11.962;2023-09-19T06:32:42;17.20;99.90
13336;DHT22;6737;51.480;11.962;2023-09-19T06:35:11;17.20;99.90
13336;DHT22;6737;51.480;11.962;2023-09-19T06:37:37;17.20;99.90
13336;DHT22;6737;51.480;11.962;2023-09-19T06:40:08;17.30;99.90
13336;DHT22;6737;51.480;11.962;2023-09-19T06:42:43;17.30;99.90
13336;DHT22;6737;51.480;11.962;2023-09-19T06:45:15;17.40;99.90
13336;DHT22;6737;51.480;11.962;2023-09-19T06:47:48;17.40;99.90
13336;DHT22;6737;51.480;11.962;2023-09-19T06:50:18;17.50;99.90
13336;DHT22;6737;51.480;11.962;2023-09-19T06:52:46;17.50;99.90
13336;DHT22;6737;51.480;11.962;2023-09-19T06:55:20;17.50;99.90
13336;DHT22;6737;51.480;11.962;2023-09-19T06:57:46;17.50;99.90
13336;DHT22;6737;51.480;11.962;2023-09-19T07:00:13;17.50;99.90
13336;DHT22;6737;51.480;11.962;2023-09-19T07:03:06;17.60;99.90
13336;DHT22;6737;51.480;11.962;2023-09-19T07:05:39;17.50;99.90
13336;DHT22;6737;51.480;11.962;2023-09-19T07:08:09;17.50;99.90
13336;DHT22;6737;51.480;11.962;2023-09-19T07:10:40;17.50;99.90
13336;DHT22;6737;51.480;11.962;2023-09-19T07:13:15;17.60;99.90
13336;DHT22;6737;51.480;11.962;2023-09-19T07:15:44;17.50;99.90
13336;DHT22;6737;51.480;11.962;2023-09-19T07:18:14;17.50;99.90
13336;DHT22;6737;51.480;11.962;2023-09-19T07:20:40;17.50;99.90
13336;DHT22;6737;51.480;11.962;2023-09-19T07:23:11;17.50;99.90
13336;DHT22;6737;51.480;11.962;2023-09-19T07:25:41;17.50;99.90
13336;DHT22;6737;51.480;11.962;2023-09-19T07:28:07;17.50;99.90
13336;DHT22;6737;51.480;11.962;2023-09-19T07:30:36;17.40;99.90
13336;DHT22;6737;51.480;11.962;2023-09-19T07:33:03;17.50;99.90
13336;DHT22;6737;51.480;11.962;2023-09-19T07:35:31;17.50;99.90
13336;DHT22;6737;51.480;11.962;2023-09-19T07:37:57;17.50;99.90
13336;DHT22;6737;51.480;11.962;2023-09-19T07:40:24;17.50;99.90
13336;DHT22;6737;51.480;11.962;2023-09-19T07:42:52;17.50;99.90
13336;DHT22;6737;51.480;11.962;2023-09-19T07:45:18;17.40;99.90
13336;DHT22;6737;51.480;11.962;2023-09-19T07:47:48;17.40;99.90
13336;DHT22;6737;51.480;11.962;2023-09-19T07:50:15;17.40;99.90
13336;DHT22;6737;51.480;11.962;2023-09-19T07:52:42;17.40;99.90
13336;DHT22;6737;51.480;11.962;2023-09-19T07:55:09;17.40;99.90
13336;DHT22;6737;51.480;11.962;2023-09-19T07:57:37;17.40;99.90
13336;DHT22;6737;51.480;11.962;2023-09-19T08:00:04;17.40;99.90
13336;DHT22;6737;51.480;11.962;2023-09-19T08:02:36;17.50;99.90
13336;DHT22;6737;51.480;11.962;2023-09-19T08:05:04;17.50;99.90
13336;DHT22;6737;51.480;11.962;2023-09-19T08:07:39;17.50;99.90
13336;DHT22;6737;51.480;11.962;2023-09-19T08:10:07;17.40;99.90
13336;DHT22;6737;51.480;11.962;2023-09-19T08:12:36;17.50;99.90
13336;DHT22;6737;51.480;11.962;2023-09-19T08:15:03;17.50;99.90
13336;DHT22;6737;51.480;11.962;2023-09-19T08:17:35;17.50;99.90
13336;DHT22;6737;51.480;11.962;2023-09-19T08:20:01;17.50;99.90
13336;DHT22;6737;51.480;11.962;2023-09-19T08:22:30;17.50;99.90
13336;DHT22;6737;51.480;11.962;2023-09-19T08:24:58;17.60;99.90
13336;DHT22;6737;51.480;11.962;2023-09-19T08:27:24;17.70;99.90
13336;DHT22;6737;51.480;11.962;2023-09-19T08:29:53;17.70;99.90
13336;DHT22;6737;51.480;11.962;2023-09-19T08:32:19;17.80;99.90
13336;DHT22;6737;51.480;11.962;2023-09-19T08:34:50;17.90;99.90
13336;DHT22;6737;51.480;11.962;2023-09-19T08:37:15;18.00;99.90
13336;DHT22;6737;51.480;11.962;2023-09-19T08:39:44;18.10;99.90
13336;DHT22;6737;51.480;11.962;2023-09-19T08:42:10;18.20;99.90
13336;DHT22;6737;51.480;11.962;2023-09-19T08:44:38;18.20;99.90
13336;DHT22;6737;51.480;11.962;2023-09-19T08:47:10;18.20;99.90
13336;DHT22;6737;51.480;11.962;2023-09-19T08:49:59;18.20;99.90
13336;DHT22;6737;51.480;11.962;2023-09-19T08:52:42;18.20;99.90
13336;DHT22;6737;51.480;11.962;2023-09-19T08:55:13;18.10;99.90
13336;DHT22;6737;51.480;11.962;2023-09-19T08:57:40;18.10;99.90
13336;DHT22;6737;51.480;11.962;2023-09-19T09:00:08;18.20;99.90
13336;DHT22;6737;51.480;11.962;2023-09-19T09:02:41;18.20;99.90
13336;DHT22;6737;51.480;11.962;2023-09-19T09:05:11;18.20;99.90
13336;DHT22;6737;51.480;11.962;2023-09-19T09:07:38;18.30;99.90
13336;DHT22;6737;51.480;11.962;2023-09-19T09:10:07;18.30;99.90
13336;DHT22;6737;51.480;11.962;2023-09-19T09:12:35;18.30;99.90
13336;DHT22;6737;51.480;11.962;2023-09-19T09:15:07;18.20;99.90
13336;DHT22;6737;51.480;11.962;2023-09-19T09:17:34;18.20;99.90
13336;DHT22;6737;51.480;11.962;2023-09-19T09:20:00;18.20;99.90
13336;DHT22;6737;51.480;11.962;2023-09-19T09:22:26;18.30;99.90
13336;DHT22;6737;51.480;11.962;2023-09-19T09:24:59;18.40;99.90
13336;DHT22;6737;51.480;11.962;2023-09-19T09:27:30;18.50;99.90
13336;DHT22;6737;51.480;11.962;2023-09-19T09:29:58;18.60;99.90
13336;DHT22;6737;51.480;11.962;2023-09-19T09:32:26;18.60;99.90
13336;DHT22;6737;51.480;11.962;2023-09-19T09:34:59;18.60;99.90
13336;DHT22;6737;51.480;11.962;2023-09-19T09:37:26;18.60;99.90
13336;DHT22;6737;51.480;11.962;2023-09-19T09:42:37;18.60;99.90
13336;DHT22;6737;51.480;11.962;2023-09-19T09:45:22;18.60;99.90
13336;DHT22;6737;51.480;11.962;2023-09-19T09:48:03;18.60;99.90
13336;DHT22;6737;51.480;11.962;2023-09-19T09:50:30;18.60;99.90
13336;DHT22;6737;51.480;11.962;2023-09-19T09:53:24;18.60;99.90
13336;DHT22;6737;51.480;11.962;2023-09-19T09:56:03;18.50;99.90
13336;DHT22;6737;51.480;11.962;2023-09-19T09:58:49;18.40;99.90
13336;DHT22;6737;51.480;11.962;2023-09-19T10:01:15;18.40;99.90
13336;DHT22;6737;51.480;11.962;2023-09-19T10:03:43;18.30;99.90
13336;DHT22;6737;51.480;11.962;2023-09-19T10:06:14;18.30;99.90
13336;DHT22;6737;51.480;11.962;2023-09-19T10:09:05;18.30;99.90
13336;DHT22;6737;51.480;11.962;2023-09-19T10:11:42;18.30;99.90
13336;DHT22;6737;51.480;11.962;2023-09-19T10:14:14;18.30;99.90
13336;DHT22;6737;51.480;11.962;2023-09-19T10:16:46;18.40;99.90
13336;DHT22;6737;51.480;11.962;2023-09-19T10:22:01;18.60;99.90
13336;DHT22;6737;51.480;11.962;2023-09-19T10:24:28;18.60;99.90
13336;DHT22;6737;51.480;11.962;2023-09-19T10:26:55;18.60;99.90
13336;DHT22;6737;51.480;11.962;2023-09-19T10:29:24;18.60;99.90
13336;DHT22;6737;51.480;11.962;2023-09-19T10:31:55;18.60;99.90
13336;DHT22;6737;51.480;11.962;2023-09-19T10:34:25;18.70;99.90
13336;DHT22;6737;51.480;11.962;2023-09-19T10:36:53;18.70;99.90
13336;DHT22;6737;51.480;11.962;2023-09-19T10:39:19;18.70;99.90
13336;DHT22;6737;51.480;11.962;2023-09-19T10:41:57;18.80;99.90
13336;DHT22;6737;51.480;11.962;2023-09-19T10:44:32;18.80;99.90
13336;DHT22;6737;51.480;11.962;2023-09-19T10:46:59;18.70;99.90
13336;DHT22;6737;51.480;11.962;2023-09-19T10:49:25;18.70;99.90
13336;DHT22;6737;51.480;11.962;2023-09-19T10:51:54;18.70;99.90
13336;DHT22;6737;51.480;11.962;2023-09-19T10:54:27;18.80;99.90
13336;DHT22;6737;51.480;11.962;2023-09-19T10:56:54;18.80;99.90
13336;DHT22;6737;51.480;11.962;2023-09-19T10:59:24;18.80;99.90
13336;DHT22;6737;51.480;11.962;2023-09-19T11:01:55;18.80;99.90
13336;DHT22;6737;51.480;11.962;2023-09-19T11:07:07;18.70;99.90
13336;DHT22;6737;51.480;11.962;2023-09-19T11:09:55;18.80;99.90
13336;DHT22;6737;51.480;11.962;2023-09-19T11:26:42;19.00;99.90
13336;DHT22;6737;51.480;11.962;2023-09-19T11:29:34;19.00;99.90
13336;DHT22;6737;51.480;11.962;2023-09-19T11:32:01;19.00;99.90
13336;DHT22;6737;51.480;11.962;2023-09-19T11:40:12;19.10;99.90
13336;DHT22;6737;51.480;11.962;2023-09-19T11:42:46;19.00;99.90
13336;DHT22;6737;51.480;11.962;2023-09-19T11:48:14;18.90;99.90
13336;DHT22;6737;51.480;11.962;2023-09-19T11:50:45;18.90;99.90
13336;DHT22;6737;51.480;11.962;2023-09-19T11:53:13;18.90;99.90
13336;DHT22;6737;51.480;11.962;2023-09-19T11:55:40;19.00;99.90
13336;DHT22;6737;51.480;11.962;2023-09-19T11:58:09;19.00;99.90
13336;DHT22;6737;51.480;11.962;2023-09-19T12:00:38;19.10;99.90
13336;DHT22;6737;51.480;11.962;2023-09-19T12:03:12;19.10;99.90
13336;DHT22;6737;51.480;11.962;2023-09-19T12:05:39;19.20;99.90
13336;DHT22;6737;51.480;11.962;2023-09-19T12:08:07;19.30;99.90
13336;DHT22;6737;51.480;11.962;2023-09-19T12:10:48;19.30;99.90
13336;DHT22;6737;51.480;11.962;2023-09-19T12:13:20;19.40;99.90
13336;DHT22;6737;51.480;11.962;2023-09-19T12:15:47;19.50;99.90
13336;DHT22;6737;51.480;11.962;2023-09-19T12:18:41;19.60;99.90
13336;DHT22;6737;51.480;11.962;2023-09-19T12:21:25;19.60;99.90
13336;DHT22;6737;51.480;11.962;2023-09-19T12:26:43;19.70;99.90
13336;DHT22;6737;51.480;11.962;2023-09-19T12:29:15;19.70;99.90
13336;DHT22;6737;51.480;11.962;2023-09-19T12:31:54;19.60;99.90
13336;DHT22;6737;51.480;11.962;2023-09-19T12:34:30;19.70;99.90
13336;DHT22;6737;51.480;11.962;2023-09-19T12:37:04;19.60;99.90
13336;DHT22;6737;51.480;11.962;2023-09-19T12:39:42;19.60;99.90
13336;DHT22;6737;51.480;11.962;2023-09-19T12:42:12;19.50;99.90
13336;DHT22;6737;51.480;11.962;2023-09-19T12:44:47;19.50;99.90
13336;DHT22;6737;51.480;11.962;2023-09-19T12:47:16;19.50;99.90
13336;DHT22;6737;51.480;11.962;2023-09-19T12:50:13;19.50;99.90
13336;DHT22;6737;51.480;11.962;2023-09-19T12:52:47;19.50;99.90
13336;DHT22;6737;51.480;11.962;2023-09-19T12:55:27;19.50;99.90
13336;DHT22;6737;51.480;11.962;2023-09-19T13:00:39;19.60;99.90
13336;DHT22;6737;51.480;11.962;2023-09-19T13:03:27;19.60;99.90
13336;DHT22;6737;51.480;11.962;2023-09-19T13:06:02;19.60;99.90
13336;DHT22;6737;51.480;11.962;2023-09-19T13:08:38;19.60;99.90
13336;DHT22;6737;51.480;11.962;2023-09-19T13:13:37;19.70;99.90
13336;DHT22;6737;51.480;11.962;2023-09-19T13:16:04;19.80;99.90
13336;DHT22;6737;51.480;11.962;2023-09-19T13:18:45;19.80;99.90
13336;DHT22;6737;51.480;11.962;2023-09-19T13:21:13;19.70;99.90
13336;DHT22;6737;51.480;11.962;2023-09-19T13:23:52;19.70;99.90
13336;DHT22;6737;51.480;11.962;2023-09-19T13:26:20;19.80;99.90
13336;DHT22;6737;51.480;11.962;2023-09-19T13:28:46;19.90;99.90
13336;DHT22;6737;51.480;11.962;2023-09-19T13:31:15;19.80;99.90
13336;DHT22;6737;51.480;11.962;2023-09-19T13:33:46;19.70;99.90
13336;DHT22;6737;51.480;11.962;2023-09-19T13:36:13;19.70;99.90
13336;DHT22;6737;51.480;11.962;2023-09-19T13:38:42;19.70;99.90
13336;DHT22;6737;51.480;11.962;2023-09-19T13:41:13;19.70;99.90
13336;DHT22;6737;51.480;11.962;2023-09-19T13:43:39;19.70;99.90
13336;DHT22;6737;51.480;11.962;2023-09-19T13:46:05;19.70;99.90
13336;DHT22;6737;51.480;11.962;2023-09-19T13:48:37;19.70;99.90
13336;DHT22;6737;51.480;11.962;2023-09-19T13:51:04;19.80;99.90
13336;DHT22;6737;51.480;11.962;2023-09-19T13:53:30;19.80;99.90
13336;DHT22;6737;51.480;11.962;2023-09-19T13:55:56;19.80;99.90
13336;DHT22;6737;51.480;11.962;2023-09-19T13:58:22;19.80;99.90
13336;DHT22;6737;51.480;11.962;2023-09-19T14:00:53;19.80;99.90
13336;DHT22;6737;51.480;11.962;2023-09-19T14:03:21;19.70;99.90
13336;DHT22;6737;51.480;11.962;2023-09-19T14:05:47;19.80;99.90
13336;DHT22;6737;51.480;11.962;2023-09-19T14:08:14;19.90;99.90
13336;DHT22;6737;51.480;11.962;2023-09-19T14:10:40;19.90;99.90
13336;DHT22;6737;51.480;11.962;2023-09-19T14:13:06;19.90;99.90
13336;DHT22;6737;51.480;11.962;2023-09-19T14:15:32;19.90;99.90
13336;DHT22;6737;51.480;11.962;2023-09-19T14:18:00;19.90;99.90
13336;DHT22;6737;51.480;11.962;2023-09-19T14:20:26;19.90;99.90
13336;DHT22;6737;51.480;11.962;2023-09-19T14:22:53;19.90;99.90
13336;DHT22;6737;51.480;11.962;2023-09-19T14:25:20;19.90;99.90
13336;DHT22;6737;51.480;11.962;2023-09-19T14:27:47;19.90;99.90
13336;DHT22;6737;51.480;11.962;2023-09-19T14:30:13;19.90;99.90
13336;DHT22;6737;51.480;11.962;2023-09-19T14:32:39;19.90;99.90
13336;DHT22;6737;51.480;11.962;2023-09-19T14:35:07;19.90;99.90
13336;DHT22;6737;51.480;11.962;2023-09-19T14:37:33;19.90;99.90
13336;DHT22;6737;51.480;11.962;2023-09-19T14:39:59;19.80;99.90
13336;DHT22;6737;51.480;11.962;2023-09-19T14:42:25;19.70;99.90
13336;DHT22;6737;51.480;11.962;2023-09-19T14:44:50;19.80;99.90
13336;DHT22;6737;51.480;11.962;2023-09-19T14:47:16;19.80;99.90
13336;DHT22;6737;51.480;11.962;2023-09-19T14:49:42;19.80;99.90
13336;DHT22;6737;51.480;11.962;2023-09-19T14:52:09;19.70;99.90
13336;DHT22;6737;51.480;11.962;2023-09-19T14:54:36;19.70;99.90
13336;DHT22;6737;51.480;11.962;2023-09-19T14:57:04;19.60;99.90
13336;DHT22;6737;51.480;11.962;2023-09-19T14:59:32;19.70;99.90
13336;DHT22;6737;51.480;11.962;2023-09-19T15:01:59;19.70;99.90
13336;DHT22;6737;51.480;11.962;2023-09-19T15:04:27;19.70;99.90
13336;DHT22;6737;51.480;11.962;2023-09-19T15:06:53;19.60;99.90
13336;DHT22;6737;51.480;11.962;2023-09-19T15:09:21;19.60;99.90
13336;DHT22;6737;51.480;11.962;2023-09-19T15:11:49;19.50;99.90
13336;DHT22;6737;51.480;11.962;2023-09-19T15:14:15;19.50;99.90
13336;DHT22;6737;51.480;11.962;2023-09-19T15:16:41;19.50;99.90
13336;DHT22;6737;51.480;11.962;2023-09-19T15:19:09;19.40;99.90
13336;DHT22;6737;51.480;11.962;2023-09-19T15:21:36;19.50;99.90
13336;DHT22;6737;51.480;11.962;2023-09-19T15:24:06;19.50;99.90
13336;DHT22;6737;51.480;11.962;2023-09-19T15:26:36;19.30;99.90
13336;DHT22;6737;51.480;11.962;2023-09-19T15:29:06;19.30;99.90
13336;DHT22;6737;51.480;11.962;2023-09-19T15:31:32;19.30;99.90
13336;DHT22;6737;51.480;11.962;2023-09-19T15:33:58;19.30;99.90
13336;DHT22;6737;51.480;11.962;2023-09-19T15:36:24;19.30;99.90
13336;DHT22;6737;51.480;11.962;2023-09-19T15:39:04;19.50;99.90
13336;DHT22;6737;51.480;11.962;2023-09-19T15:41:39;19.40;99.90
13336;DHT22;6737;51.480;11.962;2023-09-19T15:44:12;19.40;99.90
13336;DHT22;6737;51.480;11.962;2023-09-19T15:46:38;19.30;99.90
13336;DHT22;6737;51.480;11.962;2023-09-19T15:49:05;19.30;99.90
13336;DHT22;6737;51.480;11.962;2023-09-19T15:51:31;19.30;99.90
13336;DHT22;6737;51.480;11.962;2023-09-19T15:53:57;19.20;99.90
13336;DHT22;6737;51.480;11.962;2023-09-19T15:56:26;19.20;99.90
13336;DHT22;6737;51.480;11.962;2023-09-19T15:58:54;19.20;99.90
13336;DHT22;6737;51.480;11.962;2023-09-19T16:01:21;19.20;99.90
13336;DHT22;6737;51.480;11.962;2023-09-19T16:03:48;19.20;99.90
13336;DHT22;6737;51.480;11.962;2023-09-19T16:06:20;19.10;99.90
13336;DHT22;6737;51.480;11.962;2023-09-19T16:08:50;19.10;99.90
13336;DHT22;6737;51.480;11.962;2023-09-19T16:11:17;19.00;99.90
13336;DHT22;6737;51.480;11.962;2023-09-19T16:13:43;18.80;99.90
13336;DHT22;6737;51.480;11.962;2023-09-19T16:16:15;18.80;99.90
13336;DHT22;6737;51.480;11.962;2023-09-19T16:18:50;18.70;99.90
13336;DHT22;6737;51.480;11.962;2023-09-19T16:21:17;18.60;99.90
13336;DHT22;6737;51.480;11.962;2023-09-19T16:23:47;18.60;99.90
13336;DHT22;6737;51.480;11.962;2023-09-19T16:26:15;18.60;99.90
13336;DHT22;6737;51.480;11.962;2023-09-19T16:28:44;18.60;99.90
13336;DHT22;6737;51.480;11.962;2023-09-19T16:31:10;18.60;99.90
13336;DHT22;6737;51.480;11.962;2023-09-19T16:33:38;18.50;99.90
13336;DHT22;6737;51.480;11.962;2023-09-19T16:36:17;18.50;99.90
13336;DHT22;6737;51.480;11.962;2023-09-19T16:38:44;18.50;99.90
13336;DHT22;6737;51.480;11.962;2023-09-19T16:41:14;18.50;99.90
13336;DHT22;6737;51.480;11.962;2023-09-19T16:43:42;18.50;99.90